Brookdale, California
Current Conditions -  °F | °C
As of 1:53 PM on Monday 26 Jan 2015 (Local Time) from KSJC Reporting Station
Broken Clouds Broken Clouds  
Wind Chill: 63°   Ceiling: 15000
Heat Index: 63°   Visibility: 10mi
Dew Point: 43°   Wind: 3mph
Humidity: 48%   Direction: 280°W
Pressure: 29.97"   Gusts: NA
Location:  37.11°N, 122.1°W
Report Text: KSJC 262153Z 28003KT 10SM FEW070 SCT120 BKN150 17/06 A2997 RMK AO2 SLP147 T01720061
Loading
Personal Weather Stations






























Interactive Weather Map New forecast layout! Learn more

10-Day Weather Forecast

Advertisements
Track Severe Weather on mobile